sensor_id;sensor_type;location;lat;lon;timestamp;temperature;humidity
52555;DHT22;38455;52.710;6.502;2024-02-04T00:01:03;8.70;99.90
52555;DHT22;38455;52.710;6.502;2024-02-04T00:03:29;8.70;99.90
52555;DHT22;38455;52.710;6.502;2024-02-04T00:05:54;8.60;99.90
52555;DHT22;38455;52.710;6.502;2024-02-04T00:08:21;8.60;99.90
52555;DHT22;38455;52.710;6.502;2024-02-04T00:10:47;8.60;99.90
52555;DHT22;38455;52.710;6.502;2024-02-04T00:13:13;8.50;99.90
52555;DHT22;38455;52.710;6.502;2024-02-04T00:15:38;8.50;99.90
52555;DHT22;38455;52.710;6.502;2024-02-04T00:18:04;8.60;99.90
52555;DHT22;38455;52.710;6.502;2024-02-04T00:20:30;8.60;99.90
52555;DHT22;38455;52.710;6.502;2024-02-04T00:22:58;8.60;99.90
52555;DHT22;38455;52.710;6.502;2024-02-04T00:25:24;8.50;99.90
52555;DHT22;38455;52.710;6.502;2024-02-04T00:27:49;8.50;99.90
52555;DHT22;38455;52.710;6.502;2024-02-04T00:30:15;8.40;99.90
52555;DHT22;38455;52.710;6.502;2024-02-04T00:32:41;8.40;99.90
52555;DHT22;38455;52.710;6.502;2024-02-04T00:35:07;8.30;99.90
52555;DHT22;38455;52.710;6.502;2024-02-04T00:37:32;8.30;99.90
52555;DHT22;38455;52.710;6.502;2024-02-04T00:39:58;8.20;99.90
52555;DHT22;38455;52.710;6.502;2024-02-04T00:42:24;8.20;99.90
52555;DHT22;38455;52.710;6.502;2024-02-04T00:44:49;8.20;99.90
52555;DHT22;38455;52.710;6.502;2024-02-04T00:47:15;8.10;99.90
52555;DHT22;38455;52.710;6.502;2024-02-04T00:49:41;8.00;99.90
52555;DHT22;38455;52.710;6.502;2024-02-04T00:52:06;8.00;99.90
52555;DHT22;38455;52.710;6.502;2024-02-04T00:54:32;8.00;99.90
52555;DHT22;38455;52.710;6.502;2024-02-04T00:56:58;7.90;99.90
52555;DHT22;38455;52.710;6.502;2024-02-04T00:59:25;7.80;99.90
52555;DHT22;38455;52.710;6.502;2024-02-04T01:01:50;7.80;99.90
52555;DHT22;38455;52.710;6.502;2024-02-04T01:04:16;7.70;99.90
52555;DHT22;38455;52.710;6.502;2024-02-04T01:06:41;7.70;99.90
52555;DHT22;38455;52.710;6.502;2024-02-04T01:09:07;7.60;99.90
52555;DHT22;38455;52.710;6.502;2024-02-04T01:11:33;7.60;99.90
52555;DHT22;38455;52.710;6.502;2024-02-04T01:13:59;7.60;99.90
52555;DHT22;38455;52.710;6.502;2024-02-04T01:16:24;7.60;99.90
52555;DHT22;38455;52.710;6.502;2024-02-04T01:18:50;7.60;99.90
52555;DHT22;38455;52.710;6.502;2024-02-04T01:21:15;7.60;99.90
52555;DHT22;38455;52.710;6.502;2024-02-04T01:23:41;7.70;99.90
52555;DHT22;38455;52.710;6.502;2024-02-04T01:26:07;7.70;99.90
52555;DHT22;38455;52.710;6.502;2024-02-04T01:28:32;7.80;99.90
52555;DHT22;38455;52.710;6.502;2024-02-04T01:30:58;7.80;99.90
52555;DHT22;38455;52.710;6.502;2024-02-04T01:33:24;7.90;99.90
52555;DHT22;38455;52.710;6.502;2024-02-04T01:35:50;8.00;99.90
52555;DHT22;38455;52.710;6.502;2024-02-04T01:38:16;8.00;99.90
52555;DHT22;38455;52.710;6.502;2024-02-04T01:40:41;8.00;99.90
52555;DHT22;38455;52.710;6.502;2024-02-04T01:43:07;8.00;99.90
52555;DHT22;38455;52.710;6.502;2024-02-04T01:45:33;8.00;99.90
52555;DHT22;38455;52.710;6.502;2024-02-04T01:47:58;8.00;99.90
52555;DHT22;38455;52.710;6.502;2024-02-04T01:50:24;8.00;99.90
52555;DHT22;38455;52.710;6.502;2024-02-04T01:52:50;8.00;99.90
52555;DHT22;38455;52.710;6.502;2024-02-04T01:55:16;8.00;99.90
52555;DHT22;38455;52.710;6.502;2024-02-04T01:57:43;8.00;99.90
52555;DHT22;38455;52.710;6.502;2024-02-04T02:00:09;8.10;99.90
52555;DHT22;38455;52.710;6.502;2024-02-04T02:02:39;8.00;99.90
52555;DHT22;38455;52.710;6.502;2024-02-04T02:05:05;8.00;99.90
52555;DHT22;38455;52.710;6.502;2024-02-04T02:07:31;8.10;99.90
52555;DHT22;38455;52.710;6.502;2024-02-04T02:09:57;8.00;99.90
52555;DHT22;38455;52.710;6.502;2024-02-04T02:12:25;8.00;99.90
52555;DHT22;38455;52.710;6.502;2024-02-04T02:15:01;7.90;99.90
52555;DHT22;38455;52.710;6.502;2024-02-04T02:17:44;7.90;99.90
52555;DHT22;38455;52.710;6.502;2024-02-04T02:20:17;7.80;99.90
52555;DHT22;38455;52.710;6.502;2024-02-04T02:22:51;7.70;99.90
52555;DHT22;38455;52.710;6.502;2024-02-04T02:25:27;7.60;99.90
52555;DHT22;38455;52.710;6.502;2024-02-04T02:27:52;7.60;99.90
52555;DHT22;38455;52.710;6.502;2024-02-04T02:30:18;7.60;99.90
52555;DHT22;38455;52.710;6.502;2024-02-04T02:32:44;7.60;99.90
52555;DHT22;38455;52.710;6.502;2024-02-04T02:35:17;7.60;99.90
52555;DHT22;38455;52.710;6.502;2024-02-04T02:38:06;7.60;99.90
52555;DHT22;38455;52.710;6.502;2024-02-04T02:40:47;7.60;99.90
52555;DHT22;38455;52.710;6.502;2024-02-04T02:43:15;7.50;99.90
52555;DHT22;38455;52.710;6.502;2024-02-04T02:45:42;7.50;99.90
52555;DHT22;38455;52.710;6.502;2024-02-04T02:48:09;7.40;99.90
52555;DHT22;38455;52.710;6.502;2024-02-04T02:50:36;7.40;99.90
52555;DHT22;38455;52.710;6.502;2024-02-04T02:53:01;7.40;99.90
52555;DHT22;38455;52.710;6.502;2024-02-04T02:55:27;7.30;99.90
52555;DHT22;38455;52.710;6.502;2024-02-04T02:57:53;7.20;99.90
52555;DHT22;38455;52.710;6.502;2024-02-04T03:00:19;7.20;99.90
52555;DHT22;38455;52.710;6.502;2024-02-04T03:02:44;7.20;99.90
52555;DHT22;38455;52.710;6.502;2024-02-04T03:05:10;7.10;99.90
52555;DHT22;38455;52.710;6.502;2024-02-04T03:07:37;7.10;99.90
52555;DHT22;38455;52.710;6.502;2024-02-04T03:10:03;7.10;99.90
52555;DHT22;38455;52.710;6.502;2024-02-04T03:12:28;7.00;99.90
52555;DHT22;38455;52.710;6.502;2024-02-04T03:14:54;7.00;99.90
52555;DHT22;38455;52.710;6.502;2024-02-04T03:17:20;7.00;99.90
52555;DHT22;38455;52.710;6.502;2024-02-04T03:19:50;7.00;99.90
52555;DHT22;38455;52.710;6.502;2024-02-04T03:22:20;7.00;99.90
52555;DHT22;38455;52.710;6.502;2024-02-04T03:24:50;7.00;99.90
52555;DHT22;38455;52.710;6.502;2024-02-04T03:27:19;6.90;99.90
52555;DHT22;38455;52.710;6.502;2024-02-04T03:29:44;7.00;99.90
52555;DHT22;38455;52.710;6.502;2024-02-04T03:32:13;7.00;99.90
52555;DHT22;38455;52.710;6.502;2024-02-04T03:34:41;7.10;99.90
52555;DHT22;38455;52.710;6.502;2024-02-04T03:37:07;7.00;99.90
52555;DHT22;38455;52.710;6.502;2024-02-04T03:39:32;7.00;99.90
52555;DHT22;38455;52.710;6.502;2024-02-04T03:41:58;7.00;99.90
52555;DHT22;38455;52.710;6.502;2024-02-04T03:44:24;7.00;99.90
52555;DHT22;38455;52.710;6.502;2024-02-04T03:46:52;7.00;99.90
52555;DHT22;38455;52.710;6.502;2024-02-04T03:49:18;7.00;99.90
52555;DHT22;38455;52.710;6.502;2024-02-04T03:51:44;7.00;99.90
52555;DHT22;38455;52.710;6.502;2024-02-04T03:54:10;6.90;99.90
52555;DHT22;38455;52.710;6.502;2024-02-04T03:56:35;6.90;99.90
52555;DHT22;38455;52.710;6.502;2024-02-04T03:59:01;6.80;99.90
52555;DHT22;38455;52.710;6.502;2024-02-04T04:01:27;6.90;99.90
52555;DHT22;38455;52.710;6.502;2024-02-04T04:03:53;6.90;99.90
52555;DHT22;38455;52.710;6.502;2024-02-04T04:06:18;6.90;99.90
52555;DHT22;38455;52.710;6.502;2024-02-04T04:08:44;6.80;99.90
52555;DHT22;38455;52.710;6.502;2024-02-04T04:11:10;6.80;99.90
52555;DHT22;38455;52.710;6.502;2024-02-04T04:13:37;6.90;99.90
52555;DHT22;38455;52.710;6.502;2024-02-04T04:16:03;6.90;99.90
52555;DHT22;38455;52.710;6.502;2024-02-04T04:18:29;6.90;99.90
52555;DHT22;38455;52.710;6.502;2024-02-04T04:20:55;6.90;99.90
52555;DHT22;38455;52.710;6.502;2024-02-04T04:23:21;6.90;99.90
52555;DHT22;38455;52.710;6.502;2024-02-04T04:25:47;6.90;99.90
52555;DHT22;38455;52.710;6.502;2024-02-04T04:28:12;7.00;99.90
52555;DHT22;38455;52.710;6.502;2024-02-04T04:30:38;7.00;99.90
52555;DHT22;38455;52.710;6.502;2024-02-04T04:33:04;7.00;99.90
52555;DHT22;38455;52.710;6.502;2024-02-04T04:35:29;7.00;99.90
52555;DHT22;38455;52.710;6.502;2024-02-04T04:37:55;7.00;99.90
52555;DHT22;38455;52.710;6.502;2024-02-04T04:40:21;7.00;99.90
52555;DHT22;38455;52.710;6.502;2024-02-04T04:42:46;7.00;99.90
52555;DHT22;38455;52.710;6.502;2024-02-04T04:45:12;7.10;99.90
52555;DHT22;38455;52.710;6.502;2024-02-04T04:47:39;7.00;99.90
52555;DHT22;38455;52.710;6.502;2024-02-04T04:50:05;7.00;99.90
52555;DHT22;38455;52.710;6.502;2024-02-04T04:52:31;7.10;99.90
52555;DHT22;38455;52.710;6.502;2024-02-04T04:54:57;7.10;99.90
52555;DHT22;38455;52.710;6.502;2024-02-04T04:57:23;7.10;99.90
52555;DHT22;38455;52.710;6.502;2024-02-04T04:59:48;7.10;99.90
52555;DHT22;38455;52.710;6.502;2024-02-04T05:02:14;7.10;99.90
52555;DHT22;38455;52.710;6.502;2024-02-04T05:04:44;7.20;99.90
52555;DHT22;38455;52.710;6.502;2024-02-04T05:07:13;7.20;99.90
52555;DHT22;38455;52.710;6.502;2024-02-04T05:09:39;7.20;99.90
52555;DHT22;38455;52.710;6.502;2024-02-04T05:12:06;7.20;99.90
52555;DHT22;38455;52.710;6.502;2024-02-04T05:14:31;7.20;99.90
52555;DHT22;38455;52.710;6.502;2024-02-04T05:16:57;7.20;99.90
52555;DHT22;38455;52.710;6.502;2024-02-04T05:19:23;7.20;99.90
52555;DHT22;38455;52.710;6.502;2024-02-04T05:21:48;7.20;99.90
52555;DHT22;38455;52.710;6.502;2024-02-04T05:24:14;7.20;99.90
52555;DHT22;38455;52.710;6.502;2024-02-04T05:26:39;7.30;99.90
52555;DHT22;38455;52.710;6.502;2024-02-04T05:29:05;7.30;99.90
52555;DHT22;38455;52.710;6.502;2024-02-04T05:31:31;7.30;99.90
52555;DHT22;38455;52.710;6.502;2024-02-04T05:33:56;7.30;99.90
52555;DHT22;38455;52.710;6.502;2024-02-04T05:36:22;7.30;99.90
52555;DHT22;38455;52.710;6.502;2024-02-04T05:38:48;7.40;99.90
52555;DHT22;38455;52.710;6.502;2024-02-04T05:41:14;7.40;99.90
52555;DHT22;38455;52.710;6.502;2024-02-04T05:43:39;7.40;99.90
52555;DHT22;38455;52.710;6.502;2024-02-04T05:46:05;7.40;99.90
52555;DHT22;38455;52.710;6.502;2024-02-04T05:48:31;7.40;99.90
52555;DHT22;38455;52.710;6.502;2024-02-04T05:50:57;7.40;99.90
52555;DHT22;38455;52.710;6.502;2024-02-04T05:53:22;7.40;99.90
52555;DHT22;38455;52.710;6.502;2024-02-04T05:55:48;7.40;99.90
52555;DHT22;38455;52.710;6.502;2024-02-04T05:58:13;7.40;99.90
52555;DHT22;38455;52.710;6.502;2024-02-04T06:00:40;7.50;99.90
52555;DHT22;38455;52.710;6.502;2024-02-04T06:03:06;7.50;99.90
52555;DHT22;38455;52.710;6.502;2024-02-04T06:05:32;7.50;99.90
52555;DHT22;38455;52.710;6.502;2024-02-04T06:07:57;7.50;99.90
52555;DHT22;38455;52.710;6.502;2024-02-04T06:10:23;7.50;99.90
52555;DHT22;38455;52.710;6.502;2024-02-04T06:12:49;7.50;99.90
52555;DHT22;38455;52.710;6.502;2024-02-04T06:15:15;7.50;99.90
52555;DHT22;38455;52.710;6.502;2024-02-04T06:17:41;7.60;99.90
52555;DHT22;38455;52.710;6.502;2024-02-04T06:20:07;7.60;99.90
52555;DHT22;38455;52.710;6.502;2024-02-04T06:22:34;7.50;99.90
52555;DHT22;38455;52.710;6.502;2024-02-04T06:25:01;7.60;99.90
52555;DHT22;38455;52.710;6.502;2024-02-04T06:27:27;7.50;99.90
52555;DHT22;38455;52.710;6.502;2024-02-04T06:29:52;7.60;99.90
52555;DHT22;38455;52.710;6.502;2024-02-04T06:32:18;7.60;99.90
52555;DHT22;38455;52.710;6.502;2024-02-04T06:34:46;7.60;99.90
52555;DHT22;38455;52.710;6.502;2024-02-04T06:37:11;7.60;99.90
52555;DHT22;38455;52.710;6.502;2024-02-04T06:39:38;7.60;99.90
52555;DHT22;38455;52.710;6.502;2024-02-04T06:42:04;7.60;99.90
52555;DHT22;38455;52.710;6.502;2024-02-04T06:44:32;7.60;99.90
52555;DHT22;38455;52.710;6.502;2024-02-04T06:46:58;7.60;99.90
52555;DHT22;38455;52.710;6.502;2024-02-04T06:49:23;7.60;99.90
52555;DHT22;38455;52.710;6.502;2024-02-04T06:51:49;7.60;99.90
52555;DHT22;38455;52.710;6.502;2024-02-04T06:54:16;7.60;99.90
52555;DHT22;38455;52.710;6.502;2024-02-04T06:56:41;7.60;99.90
52555;DHT22;38455;52.710;6.502;2024-02-04T06:59:07;7.60;99.90
52555;DHT22;38455;52.710;6.502;2024-02-04T07:01:33;7.60;99.90
52555;DHT22;38455;52.710;6.502;2024-02-04T07:03:58;7.60;99.90
52555;DHT22;38455;52.710;6.502;2024-02-04T07:06:24;7.60;99.90
52555;DHT22;38455;52.710;6.502;2024-02-04T07:08:50;7.60;99.90
52555;DHT22;38455;52.710;6.502;2024-02-04T07:11:16;7.60;99.90
52555;DHT22;38455;52.710;6.502;2024-02-04T07:13:42;7.60;99.90
52555;DHT22;38455;52.710;6.502;2024-02-04T07:16:07;7.60;99.90
52555;DHT22;38455;52.710;6.502;2024-02-04T07:18:33;7.60;99.90
52555;DHT22;38455;52.710;6.502;2024-02-04T07:20:58;7.60;99.90
52555;DHT22;38455;52.710;6.502;2024-02-04T07:23:24;7.60;99.90
52555;DHT22;38455;52.710;6.502;2024-02-04T07:25:50;7.60;99.90
52555;DHT22;38455;52.710;6.502;2024-02-04T07:28:15;7.70;99.90
52555;DHT22;38455;52.710;6.502;2024-02-04T07:30:41;7.70;99.90
52555;DHT22;38455;52.710;6.502;2024-02-04T07:33:07;7.70;99.90
52555;DHT22;38455;52.710;6.502;2024-02-04T07:35:32;7.70;99.90
52555;DHT22;38455;52.710;6.502;2024-02-04T07:37:58;7.70;99.90
52555;DHT22;38455;52.710;6.502;2024-02-04T07:40:24;7.70;99.90
52555;DHT22;38455;52.710;6.502;2024-02-04T07:42:50;7.70;99.90
52555;DHT22;38455;52.710;6.502;2024-02-04T07:45:15;7.70;99.90
52555;DHT22;38455;52.710;6.502;2024-02-04T07:47:41;7.70;99.90
52555;DHT22;38455;52.710;6.502;2024-02-04T07:50:07;7.80;99.90
52555;DHT22;38455;52.710;6.502;2024-02-04T07:52:33;7.80;99.90
52555;DHT22;38455;52.710;6.502;2024-02-04T07:54:59;7.80;99.90
52555;DHT22;38455;52.710;6.502;2024-02-04T07:57:24;7.90;99.90
52555;DHT22;38455;52.710;6.502;2024-02-04T07:59:50;7.90;99.90
52555;DHT22;38455;52.710;6.502;2024-02-04T08:02:17;7.90;99.90
52555;DHT22;38455;52.710;6.502;2024-02-04T08:04:43;7.90;99.90
52555;DHT22;38455;52.710;6.502;2024-02-04T08:07:09;7.90;99.90
52555;DHT22;38455;52.710;6.502;2024-02-04T08:09:34;7.90;99.90
52555;DHT22;38455;52.710;6.502;2024-02-04T08:12:00;8.00;99.90
52555;DHT22;38455;52.710;6.502;2024-02-04T08:14:26;8.00;99.90
52555;DHT22;38455;52.710;6.502;2024-02-04T08:16:52;8.00;99.90
52555;DHT22;38455;52.710;6.502;2024-02-04T08:19:18;8.00;99.90
52555;DHT22;38455;52.710;6.502;2024-02-04T08:21:44;8.00;99.90
52555;DHT22;38455;52.710;6.502;2024-02-04T08:24:10;8.10;99.90
52555;DHT22;38455;52.710;6.502;2024-02-04T08:26:35;8.10;99.90
52555;DHT22;38455;52.710;6.502;2024-02-04T08:29:01;8.10;99.90
52555;DHT22;38455;52.710;6.502;2024-02-04T08:31:27;8.10;99.90
52555;DHT22;38455;52.710;6.502;2024-02-04T08:33:52;8.20;99.90
52555;DHT22;38455;52.710;6.502;2024-02-04T08:36:19;8.20;99.90
52555;DHT22;38455;52.710;6.502;2024-02-04T08:38:44;8.30;99.90
52555;DHT22;38455;52.710;6.502;2024-02-04T08:41:10;8.30;99.90
52555;DHT22;38455;52.710;6.502;2024-02-04T08:43:36;8.40;99.90
52555;DHT22;38455;52.710;6.502;2024-02-04T08:46:02;8.40;99.90
52555;DHT22;38455;52.710;6.502;2024-02-04T08:48:27;8.50;99.90
52555;DHT22;38455;52.710;6.502;2024-02-04T08:50:53;8.50;99.90
52555;DHT22;38455;52.710;6.502;2024-02-04T08:53:21;8.60;99.90
52555;DHT22;38455;52.710;6.502;2024-02-04T08:55:49;8.60;99.90
52555;DHT22;38455;52.710;6.502;2024-02-04T08:58:14;8.70;99.90
52555;DHT22;38455;52.710;6.502;2024-02-04T09:00:40;8.70;99.90
52555;DHT22;38455;52.710;6.502;2024-02-04T09:03:06;8.80;99.90
52555;DHT22;38455;52.710;6.502;2024-02-04T09:05:31;8.80;99.90
52555;DHT22;38455;52.710;6.502;2024-02-04T09:07:57;8.90;99.90
52555;DHT22;38455;52.710;6.502;2024-02-04T09:10:23;8.90;99.90
52555;DHT22;38455;52.710;6.502;2024-02-04T09:12:48;9.00;99.90
52555;DHT22;38455;52.710;6.502;2024-02-04T09:15:14;9.00;99.90
52555;DHT22;38455;52.710;6.502;2024-02-04T09:17:40;9.00;99.90
52555;DHT22;38455;52.710;6.502;2024-02-04T09:20:06;9.00;99.90
52555;DHT22;38455;52.710;6.502;2024-02-04T09:22:33;9.10;99.90
52555;DHT22;38455;52.710;6.502;2024-02-04T09:24:59;9.20;99.90
52555;DHT22;38455;52.710;6.502;2024-02-04T09:27:25;9.20;99.90
52555;DHT22;38455;52.710;6.502;2024-02-04T09:29:51;9.40;99.90
52555;DHT22;38455;52.710;6.502;2024-02-04T09:32:17;9.50;99.90
52555;DHT22;38455;52.710;6.502;2024-02-04T09:34:43;9.50;99.90
52555;DHT22;38455;52.710;6.502;2024-02-04T09:37:09;9.60;99.90
52555;DHT22;38455;52.710;6.502;2024-02-04T09:39:35;9.60;99.90
52555;DHT22;38455;52.710;6.502;2024-02-04T09:42:02;9.70;99.90
52555;DHT22;38455;52.710;6.502;2024-02-04T09:44:29;9.70;99.90
52555;DHT22;38455;52.710;6.502;2024-02-04T09:46:55;9.60;99.90
52555;DHT22;38455;52.710;6.502;2024-02-04T09:49:25;9.60;99.90
52555;DHT22;38455;52.710;6.502;2024-02-04T09:51:51;9.60;99.90
52555;DHT22;38455;52.710;6.502;2024-02-04T09:54:18;9.60;99.90
52555;DHT22;38455;52.710;6.502;2024-02-04T09:56:47;9.60;99.90
52555;DHT22;38455;52.710;6.502;2024-02-04T09:59:13;9.60;99.90
52555;DHT22;38455;52.710;6.502;2024-02-04T10:01:39;9.60;99.90
52555;DHT22;38455;52.710;6.502;2024-02-04T10:04:05;9.70;99.90
52555;DHT22;38455;52.710;6.502;2024-02-04T10:06:31;9.70;99.90
52555;DHT22;38455;52.710;6.502;2024-02-04T10:08:56;9.60;99.90
52555;DHT22;38455;52.710;6.502;2024-02-04T10:11:22;9.60;99.90
52555;DHT22;38455;52.710;6.502;2024-02-04T10:13:51;9.60;99.90
52555;DHT22;38455;52.710;6.502;2024-02-04T10:16:17;9.60;99.90
52555;DHT22;38455;52.710;6.502;2024-02-04T10:18:44;9.60;99.90
52555;DHT22;38455;52.710;6.502;2024-02-04T10:21:17;9.70;99.90
52555;DHT22;38455;52.710;6.502;2024-02-04T10:23:49;9.80;99.90
52555;DHT22;38455;52.710;6.502;2024-02-04T10:26:15;9.80;99.90
52555;DHT22;38455;52.710;6.502;2024-02-04T10:28:42;9.80;99.90
52555;DHT22;38455;52.710;6.502;2024-02-04T10:31:09;9.80;99.90
52555;DHT22;38455;52.710;6.502;2024-02-04T10:33:36;9.80;99.90
52555;DHT22;38455;52.710;6.502;2024-02-04T10:36:02;9.80;99.90
52555;DHT22;38455;52.710;6.502;2024-02-04T10:38:28;9.80;99.90
52555;DHT22;38455;52.710;6.502;2024-02-04T10:40:54;9.70;99.90
52555;DHT22;38455;52.710;6.502;2024-02-04T10:43:24;9.70;99.90
52555;DHT22;38455;52.710;6.502;2024-02-04T10:45:56;9.60;99.90
52555;DHT22;38455;52.710;6.502;2024-02-04T10:48:24;9.60;99.90
52555;DHT22;38455;52.710;6.502;2024-02-04T10:50:53;9.60;99.90
52555;DHT22;38455;52.710;6.502;2024-02-04T10:53:21;9.60;99.90
52555;DHT22;38455;52.710;6.502;2024-02-04T10:55:49;9.50;99.90
52555;DHT22;38455;52.710;6.502;2024-02-04T10:58:16;9.60;99.90
52555;DHT22;38455;52.710;6.502;2024-02-04T11:00:43;9.50;99.90
52555;DHT22;38455;52.710;6.502;2024-02-04T11:03:10;9.50;99.90
52555;DHT22;38455;52.710;6.502;2024-02-04T11:05:36;9.50;99.90
52555;DHT22;38455;52.710;6.502;2024-02-04T11:08:04;9.60;99.90
52555;DHT22;38455;52.710;6.502;2024-02-04T11:10:31;9.70;99.90
52555;DHT22;38455;52.710;6.502;2024-02-04T11:12:59;9.90;99.90
52555;DHT22;38455;52.710;6.502;2024-02-04T11:15:37;10.00;99.90
52555;DHT22;38455;52.710;6.502;2024-02-04T11:21:20;10.10;99.90
52555;DHT22;38455;52.710;6.502;2024-02-04T11:26:27;10.00;99.90
52555;DHT22;38455;52.710;6.502;2024-02-04T11:28:55;9.90;99.90
52555;DHT22;38455;52.710;6.502;2024-02-04T11:31:21;9.90;99.90
52555;DHT22;38455;52.710;6.502;2024-02-04T11:33:50;9.90;99.90
52555;DHT22;38455;52.710;6.502;2024-02-04T11:36:16;9.80;99.90
52555;DHT22;38455;52.710;6.502;2024-02-04T11:38:48;9.80;99.90
52555;DHT22;38455;52.710;6.502;2024-02-04T11:41:22;9.80;99.90
52555;DHT22;38455;52.710;6.502;2024-02-04T11:43:52;9.80;99.90
52555;DHT22;38455;52.710;6.502;2024-02-04T11:46:18;9.80;99.90
52555;DHT22;38455;52.710;6.502;2024-02-04T11:48:53;9.80;99.90
52555;DHT22;38455;52.710;6.502;2024-02-04T11:51:22;9.90;99.90
52555;DHT22;38455;52.710;6.502;2024-02-04T11:53:51;9.90;99.90
52555;DHT22;38455;52.710;6.502;2024-02-04T11:56:18;9.90;99.90
52555;DHT22;38455;52.710;6.502;2024-02-04T11:58:44;9.90;99.90
52555;DHT22;38455;52.710;6.502;2024-02-04T12:01:10;9.90;99.90
52555;DHT22;38455;52.710;6.502;2024-02-04T12:03:39;9.90;99.90
52555;DHT22;38455;52.710;6.502;2024-02-04T12:06:05;10.00;99.90
52555;DHT22;38455;52.710;6.502;2024-02-04T12:08:33;10.00;99.90
52555;DHT22;38455;52.710;6.502;2024-02-04T12:11:00;10.00;99.90
52555;DHT22;38455;52.710;6.502;2024-02-04T12:13:28;10.10;99.90
52555;DHT22;38455;52.710;6.502;2024-02-04T12:15:54;10.10;99.90
52555;DHT22;38455;52.710;6.502;2024-02-04T12:18:20;10.10;99.90
52555;DHT22;38455;52.710;6.502;2024-02-04T12:20:49;10.00;99.90
52555;DHT22;38455;52.710;6.502;2024-02-04T12:23:18;10.10;99.90
52555;DHT22;38455;52.710;6.502;2024-02-04T12:25:47;10.10;99.90
52555;DHT22;38455;52.710;6.502;2024-02-04T12:28:14;10.10;99.90
52555;DHT22;38455;52.710;6.502;2024-02-04T12:30:39;10.10;99.90
52555;DHT22;38455;52.710;6.502;2024-02-04T12:33:06;10.10;99.90
52555;DHT22;38455;52.710;6.502;2024-02-04T12:35:32;10.10;99.90
52555;DHT22;38455;52.710;6.502;2024-02-04T12:37:59;10.10;99.90
52555;DHT22;38455;52.710;6.502;2024-02-04T12:40:26;10.00;99.90
52555;DHT22;38455;52.710;6.502;2024-02-04T12:45:22;10.00;99.90
52555;DHT22;38455;52.710;6.502;2024-02-04T12:47:58;10.00;99.90
52555;DHT22;38455;52.710;6.502;2024-02-04T12:50:24;10.00;99.90
52555;DHT22;38455;52.710;6.502;2024-02-04T12:53:03;10.00;99.90
52555;DHT22;38455;52.710;6.502;2024-02-04T12:55:34;10.10;99.90
52555;DHT22;38455;52.710;6.502;2024-02-04T12:58:06;10.10;99.90
52555;DHT22;38455;52.710;6.502;2024-02-04T13:00:37;10.10;99.90
52555;DHT22;38455;52.710;6.502;2024-02-04T13:03:04;10.10;99.90
52555;DHT22;38455;52.710;6.502;2024-02-04T13:05:30;10.10;99.90
52555;DHT22;38455;52.710;6.502;2024-02-04T13:08:00;10.20;99.90
52555;DHT22;38455;52.710;6.502;2024-02-04T13:10:32;10.20;99.90
52555;DHT22;38455;52.710;6.502;2024-02-04T13:15:42;10.10;99.90
52555;DHT22;38455;52.710;6.502;2024-02-04T13:18:11;10.10;99.90
52555;DHT22;38455;52.710;6.502;2024-02-04T13:20:40;10.10;99.90
52555;DHT22;38455;52.710;6.502;2024-02-04T13:23:07;10.00;99.90
52555;DHT22;38455;52.710;6.502;2024-02-04T13:25:34;10.00;99.90
52555;DHT22;38455;52.710;6.502;2024-02-04T13:27:59;10.00;99.90
52555;DHT22;38455;52.710;6.502;2024-02-04T13:30:25;10.00;99.90
52555;DHT22;38455;52.710;6.502;2024-02-04T13:32:51;10.00;99.90
52555;DHT22;38455;52.710;6.502;2024-02-04T13:35:17;10.00;99.90
52555;DHT22;38455;52.710;6.502;2024-02-04T13:37:47;10.10;99.90
52555;DHT22;38455;52.710;6.502;2024-02-04T13:40:15;10.00;99.90
52555;DHT22;38455;52.710;6.502;2024-02-04T13:42:41;10.10;99.90
52555;DHT22;38455;52.710;6.502;2024-02-04T13:45:07;10.10;99.90
52555;DHT22;38455;52.710;6.502;2024-02-04T13:47:34;10.00;99.90
52555;DHT22;38455;52.710;6.502;2024-02-04T13:50:00;10.10;99.90
52555;DHT22;38455;52.710;6.502;2024-02-04T13:52:26;10.10;99.90
52555;DHT22;38455;52.710;6.502;2024-02-04T13:54:51;10.10;99.90
52555;DHT22;38455;52.710;6.502;2024-02-04T13:57:17;10.10;99.90
52555;DHT22;38455;52.710;6.502;2024-02-04T13:59:43;10.10;99.90
52555;DHT22;38455;52.710;6.502;2024-02-04T14:02:09;10.10;99.90
52555;DHT22;38455;52.710;6.502;2024-02-04T14:04:35;10.10;99.90
52555;DHT22;38455;52.710;6.502;2024-02-04T14:07:01;10.10;99.90
52555;DHT22;38455;52.710;6.502;2024-02-04T14:09:30;10.10;99.90
52555;DHT22;38455;52.710;6.502;2024-02-04T14:11:55;10.10;99.90
52555;DHT22;38455;52.710;6.502;2024-02-04T14:14:23;10.10;99.90
52555;DHT22;38455;52.710;6.502;2024-02-04T14:16:49;10.10;99.90
52555;DHT22;38455;52.710;6.502;2024-02-04T14:19:15;10.10;99.90
52555;DHT22;38455;52.710;6.502;2024-02-04T14:21:41;10.00;99.90
52555;DHT22;38455;52.710;6.502;2024-02-04T14:24:07;10.00;99.90
52555;DHT22;38455;52.710;6.502;2024-02-04T14:26:32;10.00;99.90
52555;DHT22;38455;52.710;6.502;2024-02-04T14:28:58;9.90;99.90
52555;DHT22;38455;52.710;6.502;2024-02-04T14:31:24;9.90;99.90
52555;DHT22;38455;52.710;6.502;2024-02-04T14:33:50;9.90;99.90
52555;DHT22;38455;52.710;6.502;2024-02-04T14:36:16;9.80;99.90
52555;DHT22;38455;52.710;6.502;2024-02-04T14:38:42;9.90;99.90
52555;DHT22;38455;52.710;6.502;2024-02-04T14:41:08;9.80;99.90
52555;DHT22;38455;52.710;6.502;2024-02-04T14:43:35;9.80;99.90
52555;DHT22;38455;52.710;6.502;2024-02-04T14:46:03;9.70;99.90
52555;DHT22;38455;52.710;6.502;2024-02-04T14:48:29;9.70;99.90
52555;DHT22;38455;52.710;6.502;2024-02-04T14:50:55;9.70;99.90
52555;DHT22;38455;52.710;6.502;2024-02-04T14:53:22;9.70;99.90
52555;DHT22;38455;52.710;6.502;2024-02-04T14:55:48;9.60;99.90
52555;DHT22;38455;52.710;6.502;2024-02-04T14:58:14;9.60;99.90
52555;DHT22;38455;52.710;6.502;2024-02-04T15:00:39;9.60;99.90
52555;DHT22;38455;52.710;6.502;2024-02-04T15:03:05;9.60;99.90
52555;DHT22;38455;52.710;6.502;2024-02-04T15:05:31;9.60;99.90
52555;DHT22;38455;52.710;6.502;2024-02-04T15:07:56;9.60;99.90
52555;DHT22;38455;52.710;6.502;2024-02-04T15:10:22;9.60;99.90
52555;DHT22;38455;52.710;6.502;2024-02-04T15:12:49;9.60;99.90
52555;DHT22;38455;52.710;6.502;2024-02-04T15:15:18;9.60;99.90
52555;DHT22;38455;52.710;6.502;2024-02-04T15:17:44;9.60;99.90
52555;DHT22;38455;52.710;6.502;2024-02-04T15:20:10;9.70;99.90
52555;DHT22;38455;52.710;6.502;2024-02-04T15:22:39;9.70;99.90
52555;DHT22;38455;52.710;6.502;2024-02-04T15:25:07;9.70;99.90
52555;DHT22;38455;52.710;6.502;2024-02-04T15:27:34;9.70;99.90
52555;DHT22;38455;52.710;6.502;2024-02-04T15:29:59;9.70;99.90
52555;DHT22;38455;52.710;6.502;2024-02-04T15:32:26;9.70;99.90
52555;DHT22;38455;52.710;6.502;2024-02-04T15:34:52;9.70;99.90
52555;DHT22;38455;52.710;6.502;2024-02-04T15:37:18;9.70;99.90
52555;DHT22;38455;52.710;6.502;2024-02-04T15:39:44;9.70;99.90
52555;DHT22;38455;52.710;6.502;2024-02-04T15:42:10;9.80;99.90
52555;DHT22;38455;52.710;6.502;2024-02-04T15:44:35;9.70;99.90
52555;DHT22;38455;52.710;6.502;2024-02-04T15:47:05;9.80;99.90
52555;DHT22;38455;52.710;6.502;2024-02-04T15:49:31;9.80;99.90
52555;DHT22;38455;52.710;6.502;2024-02-04T15:51:57;9.80;99.90